sensor_id;sensor_type;location;lat;lon;timestamp;P1;durP1;ratioP1;P2;durP2;ratioP2
61413;SDS011;47279;52.426;10.488;2022-11-20T00:01:08;7.93;;;7.13;;
61413;SDS011;47279;52.426;10.488;2022-11-20T00:03:35;7.80;;;7.10;;
61413;SDS011;47279;52.426;10.488;2022-11-20T00:06:04;7.47;;;6.45;;
61413;SDS011;47279;52.426;10.488;2022-11-20T00:08:30;7.28;;;6.57;;
61413;SDS011;47279;52.426;10.488;2022-11-20T00:10:57;7.70;;;6.47;;
61413;SDS011;47279;52.426;10.488;2022-11-20T00:13:22;7.35;;;6.63;;
61413;SDS011;47279;52.426;10.488;2022-11-20T00:15:48;7.20;;;6.50;;
61413;SDS011;47279;52.426;10.488;2022-11-20T00:18:21;6.90;;;6.00;;
61413;SDS011;47279;52.426;10.488;2022-11-20T00:20:47;6.88;;;6.28;;
61413;SDS011;47279;52.426;10.488;2022-11-20T00:23:13;6.57;;;5.82;;
61413;SDS011;47279;52.426;10.488;2022-11-20T00:25:39;7.72;;;6.93;;
61413;SDS011;47279;52.426;10.488;2022-11-20T00:28:05;6.63;;;6.03;;
61413;SDS011;47279;52.426;10.488;2022-11-20T00:30:31;6.95;;;6.22;;
61413;SDS011;47279;52.426;10.488;2022-11-20T00:32:57;7.70;;;6.85;;
61413;SDS011;47279;52.426;10.488;2022-11-20T00:35:23;7.45;;;6.75;;
61413;SDS011;47279;52.426;10.488;2022-11-20T00:37:49;6.55;;;5.95;;
61413;SDS011;47279;52.426;10.488;2022-11-20T00:40:15;6.53;;;5.93;;
61413;SDS011;47279;52.426;10.488;2022-11-20T00:42:41;6.45;;;5.60;;
61413;SDS011;47279;52.426;10.488;2022-11-20T00:45:07;6.80;;;6.20;;
61413;SDS011;47279;52.426;10.488;2022-11-20T00:47:33;7.38;;;6.68;;
61413;SDS011;47279;52.426;10.488;2022-11-20T00:49:59;6.72;;;6.13;;
61413;SDS011;47279;52.426;10.488;2022-11-20T00:52:25;6.93;;;6.22;;
61413;SDS011;47279;52.426;10.488;2022-11-20T00:54:51;6.78;;;6.18;;
61413;SDS011;47279;52.426;10.488;2022-11-20T00:57:16;7.50;;;6.05;;
61413;SDS011;47279;52.426;10.488;2022-11-20T00:59:42;6.72;;;6.03;;
61413;SDS011;47279;52.426;10.488;2022-11-20T01:02:08;6.55;;;5.95;;
61413;SDS011;47279;52.426;10.488;2022-11-20T01:04:34;7.13;;;6.43;;
61413;SDS011;47279;52.426;10.488;2022-11-20T01:07:00;6.32;;;5.72;;
61413;SDS011;47279;52.426;10.488;2022-11-20T01:09:26;6.68;;;5.97;;
61413;SDS011;47279;52.426;10.488;2022-11-20T01:11:52;6.20;;;5.60;;
61413;SDS011;47279;52.426;10.488;2022-11-20T01:14:19;6.63;;;6.03;;
61413;SDS011;47279;52.426;10.488;2022-11-20T01:16:46;6.63;;;6.03;;
61413;SDS011;47279;52.426;10.488;2022-11-20T01:19:14;6.30;;;5.70;;
61413;SDS011;47279;52.426;10.488;2022-11-20T01:21:41;6.38;;;5.78;;
61413;SDS011;47279;52.426;10.488;2022-11-20T01:24:08;7.28;;;6.22;;
61413;SDS011;47279;52.426;10.488;2022-11-20T01:26:35;6.85;;;6.15;;
61413;SDS011;47279;52.426;10.488;2022-11-20T01:29:01;6.47;;;5.88;;
61413;SDS011;47279;52.426;10.488;2022-11-20T01:31:28;6.65;;;6.05;;
61413;SDS011;47279;52.426;10.488;2022-11-20T01:33:55;6.13;;;5.53;;
61413;SDS011;47279;52.426;10.488;2022-11-20T01:36:23;7.68;;;5.82;;
61413;SDS011;47279;52.426;10.488;2022-11-20T01:38:56;6.22;;;5.60;;
61413;SDS011;47279;52.426;10.488;2022-11-20T01:41:23;6.35;;;5.75;;
61413;SDS011;47279;52.426;10.488;2022-11-20T01:44:09;6.18;;;5.57;;
61413;SDS011;47279;52.426;10.488;2022-11-20T01:46:37;6.32;;;5.63;;
61413;SDS011;47279;52.426;10.488;2022-11-20T01:49:04;6.15;;;5.55;;
61413;SDS011;47279;52.426;10.488;2022-11-20T01:51:42;6.20;;;5.60;;
61413;SDS011;47279;52.426;10.488;2022-11-20T01:54:11;5.75;;;5.25;;
61413;SDS011;47279;52.426;10.488;2022-11-20T01:56:40;6.78;;;6.07;;
61413;SDS011;47279;52.426;10.488;2022-11-20T01:59:07;6.30;;;5.70;;
61413;SDS011;47279;52.426;10.488;2022-11-20T02:01:34;6.55;;;5.85;;
61413;SDS011;47279;52.426;10.488;2022-11-20T02:04:00;5.47;;;4.97;;
61413;SDS011;47279;52.426;10.488;2022-11-20T02:06:30;6.40;;;5.88;;
61413;SDS011;47279;52.426;10.488;2022-11-20T02:08:58;6.30;;;5.70;;
61413;SDS011;47279;52.426;10.488;2022-11-20T02:11:24;5.90;;;5.30;;
61413;SDS011;47279;52.426;10.488;2022-11-20T02:13:50;5.47;;;4.97;;
61413;SDS011;47279;52.426;10.488;2022-11-20T02:16:20;6.15;;;5.45;;
61413;SDS011;47279;52.426;10.488;2022-11-20T02:18:47;6.50;;;5.85;;
61413;SDS011;47279;52.426;10.488;2022-11-20T02:24:02;5.80;;;5.30;;
61413;SDS011;47279;52.426;10.488;2022-11-20T02:28:54;6.28;;;5.68;;
61413;SDS011;47279;52.426;10.488;2022-11-20T02:31:20;6.13;;;5.45;;
61413;SDS011;47279;52.426;10.488;2022-11-20T02:33:46;6.25;;;5.60;;
61413;SDS011;47279;52.426;10.488;2022-11-20T02:36:14;6.20;;;5.60;;
61413;SDS011;47279;52.426;10.488;2022-11-20T02:38:40;6.75;;;6.05;;
61413;SDS011;47279;52.426;10.488;2022-11-20T02:41:07;6.07;;;5.47;;
61413;SDS011;47279;52.426;10.488;2022-11-20T02:43:32;6.40;;;5.80;;
61413;SDS011;47279;52.426;10.488;2022-11-20T02:45:58;6.30;;;5.35;;
61413;SDS011;47279;52.426;10.488;2022-11-20T02:48:24;5.75;;;5.25;;
61413;SDS011;47279;52.426;10.488;2022-11-20T02:50:50;6.40;;;5.82;;
61413;SDS011;47279;52.426;10.488;2022-11-20T02:53:16;5.38;;;4.88;;
61413;SDS011;47279;52.426;10.488;2022-11-20T02:55:42;6.30;;;5.70;;
61413;SDS011;47279;52.426;10.488;2022-11-20T02:58:08;5.65;;;5.00;;
61413;SDS011;47279;52.426;10.488;2022-11-20T03:00:34;5.60;;;5.10;;
61413;SDS011;47279;52.426;10.488;2022-11-20T03:03:00;5.30;;;4.80;;
61413;SDS011;47279;52.426;10.488;2022-11-20T03:05:26;6.03;;;5.47;;
61413;SDS011;47279;52.426;10.488;2022-11-20T03:07:52;6.22;;;5.63;;
61413;SDS011;47279;52.426;10.488;2022-11-20T03:10:18;5.80;;;5.30;;
61413;SDS011;47279;52.426;10.488;2022-11-20T03:12:44;5.70;;;5.10;;
61413;SDS011;47279;52.426;10.488;2022-11-20T03:15:10;5.43;;;4.93;;
61413;SDS011;47279;52.426;10.488;2022-11-20T03:17:36;5.45;;;4.95;;
61413;SDS011;47279;52.426;10.488;2022-11-20T03:20:02;5.40;;;4.90;;
61413;SDS011;47279;52.426;10.488;2022-11-20T03:22:29;5.75;;;5.20;;
61413;SDS011;47279;52.426;10.488;2022-11-20T03:24:55;6.20;;;5.60;;
61413;SDS011;47279;52.426;10.488;2022-11-20T03:27:21;6.05;;;5.30;;
61413;SDS011;47279;52.426;10.488;2022-11-20T03:29:47;5.65;;;5.15;;
61413;SDS011;47279;52.426;10.488;2022-11-20T03:32:13;6.07;;;5.53;;
61413;SDS011;47279;52.426;10.488;2022-11-20T03:34:39;5.40;;;4.90;;
61413;SDS011;47279;52.426;10.488;2022-11-20T03:37:05;6.05;;;5.25;;
61413;SDS011;47279;52.426;10.488;2022-11-20T03:39:31;5.50;;;5.00;;
61413;SDS011;47279;52.426;10.488;2022-11-20T03:41:57;5.70;;;5.15;;
61413;SDS011;47279;52.426;10.488;2022-11-20T03:44:23;5.78;;;5.20;;
61413;SDS011;47279;52.426;10.488;2022-11-20T03:46:49;5.97;;;5.18;;
61413;SDS011;47279;52.426;10.488;2022-11-20T03:49:15;5.22;;;4.72;;
61413;SDS011;47279;52.426;10.488;2022-11-20T03:51:41;5.63;;;5.13;;
61413;SDS011;47279;52.426;10.488;2022-11-20T03:54:07;5.38;;;4.85;;
61413;SDS011;47279;52.426;10.488;2022-11-20T03:56:37;5.95;;;5.13;;
61413;SDS011;47279;52.426;10.488;2022-11-20T03:59:04;5.90;;;5.40;;
61413;SDS011;47279;52.426;10.488;2022-11-20T04:01:32;5.53;;;4.97;;
61413;SDS011;47279;52.426;10.488;2022-11-20T04:03:58;5.60;;;5.10;;
61413;SDS011;47279;52.426;10.488;2022-11-20T04:06:26;5.10;;;4.63;;
61413;SDS011;47279;52.426;10.488;2022-11-20T04:08:55;5.47;;;4.97;;
61413;SDS011;47279;52.426;10.488;2022-11-20T04:11:25;5.53;;;5.03;;
61413;SDS011;47279;52.426;10.488;2022-11-20T04:13:52;5.22;;;4.72;;
61413;SDS011;47279;52.426;10.488;2022-11-20T04:16:18;5.20;;;4.70;;
61413;SDS011;47279;52.426;10.488;2022-11-20T04:18:45;5.40;;;4.90;;
61413;SDS011;47279;52.426;10.488;2022-11-20T04:21:11;5.30;;;4.80;;
61413;SDS011;47279;52.426;10.488;2022-11-20T04:23:37;5.50;;;5.00;;
61413;SDS011;47279;52.426;10.488;2022-11-20T04:26:04;5.65;;;5.15;;
61413;SDS011;47279;52.426;10.488;2022-11-20T04:28:30;5.50;;;5.00;;
61413;SDS011;47279;52.426;10.488;2022-11-20T04:31:06;5.00;;;4.60;;
61413;SDS011;47279;52.426;10.488;2022-11-20T04:33:32;5.20;;;4.70;;
61413;SDS011;47279;52.426;10.488;2022-11-20T04:36:31;5.43;;;4.88;;
61413;SDS011;47279;52.426;10.488;2022-11-20T04:38:51;5.10;;;4.63;;
61413;SDS011;47279;52.426;10.488;2022-11-20T04:41:19;5.78;;;5.18;;
61413;SDS011;47279;52.426;10.488;2022-11-20T04:43:48;5.38;;;4.88;;
61413;SDS011;47279;52.426;10.488;2022-11-20T04:46:15;5.70;;;5.13;;
61413;SDS011;47279;52.426;10.488;2022-11-20T04:48:41;5.63;;;5.07;;
61413;SDS011;47279;52.426;10.488;2022-11-20T04:51:07;5.32;;;4.82;;
61413;SDS011;47279;52.426;10.488;2022-11-20T04:53:33;4.60;;;4.20;;
61413;SDS011;47279;52.426;10.488;2022-11-20T04:56:00;5.05;;;4.65;;
61413;SDS011;47279;52.426;10.488;2022-11-20T04:58:26;5.10;;;4.60;;
61413;SDS011;47279;52.426;10.488;2022-11-20T05:00:52;5.30;;;4.75;;
61413;SDS011;47279;52.426;10.488;2022-11-20T05:03:18;5.30;;;4.80;;
61413;SDS011;47279;52.426;10.488;2022-11-20T05:05:44;5.68;;;5.15;;
61413;SDS011;47279;52.426;10.488;2022-11-20T05:08:10;4.88;;;4.35;;
61413;SDS011;47279;52.426;10.488;2022-11-20T05:10:36;4.85;;;4.45;;
61413;SDS011;47279;52.426;10.488;2022-11-20T05:13:02;5.32;;;4.82;;
61413;SDS011;47279;52.426;10.488;2022-11-20T05:15:28;4.97;;;4.45;;
61413;SDS011;47279;52.426;10.488;2022-11-20T05:17:54;5.28;;;4.78;;
61413;SDS011;47279;52.426;10.488;2022-11-20T05:20:20;5.43;;;4.90;;
61413;SDS011;47279;52.426;10.488;2022-11-20T05:22:46;5.30;;;4.80;;
61413;SDS011;47279;52.426;10.488;2022-11-20T05:25:12;4.85;;;4.45;;
61413;SDS011;47279;52.426;10.488;2022-11-20T05:27:38;4.88;;;4.47;;
61413;SDS011;47279;52.426;10.488;2022-11-20T05:30:04;5.20;;;4.70;;
61413;SDS011;47279;52.426;10.488;2022-11-20T05:32:30;4.82;;;4.43;;
61413;SDS011;47279;52.426;10.488;2022-11-20T05:34:56;5.20;;;4.75;;
61413;SDS011;47279;52.426;10.488;2022-11-20T05:37:22;5.22;;;4.65;;
61413;SDS011;47279;52.426;10.488;2022-11-20T05:39:48;5.20;;;4.55;;
61413;SDS011;47279;52.426;10.488;2022-11-20T05:42:14;4.78;;;4.38;;
61413;SDS011;47279;52.426;10.488;2022-11-20T05:44:58;4.75;;;4.28;;
61413;SDS011;47279;52.426;10.488;2022-11-20T05:47:25;4.82;;;4.40;;
61413;SDS011;47279;52.426;10.488;2022-11-20T05:49:51;4.90;;;4.40;;
61413;SDS011;47279;52.426;10.488;2022-11-20T05:52:17;4.63;;;4.20;;
61413;SDS011;47279;52.426;10.488;2022-11-20T05:54:43;4.95;;;4.55;;
61413;SDS011;47279;52.426;10.488;2022-11-20T05:57:09;5.00;;;4.50;;
61413;SDS011;47279;52.426;10.488;2022-11-20T05:59:35;4.43;;;4.03;;
61413;SDS011;47279;52.426;10.488;2022-11-20T06:02:01;5.07;;;4.57;;
61413;SDS011;47279;52.426;10.488;2022-11-20T06:04:27;4.78;;;4.32;;
61413;SDS011;47279;52.426;10.488;2022-11-20T06:06:53;4.50;;;4.10;;
61413;SDS011;47279;52.426;10.488;2022-11-20T06:09:18;4.60;;;4.20;;
61413;SDS011;47279;52.426;10.488;2022-11-20T06:11:44;4.45;;;4.05;;
61413;SDS011;47279;52.426;10.488;2022-11-20T06:14:10;4.97;;;4.50;;
61413;SDS011;47279;52.426;10.488;2022-11-20T06:16:36;4.70;;;4.28;;
61413;SDS011;47279;52.426;10.488;2022-11-20T06:19:02;5.05;;;4.50;;
61413;SDS011;47279;52.426;10.488;2022-11-20T06:21:28;4.50;;;4.10;;
61413;SDS011;47279;52.426;10.488;2022-11-20T06:23:54;4.07;;;3.67;;
61413;SDS011;47279;52.426;10.488;2022-11-20T06:26:21;4.57;;;4.13;;
61413;SDS011;47279;52.426;10.488;2022-11-20T06:28:48;4.72;;;3.90;;
61413;SDS011;47279;52.426;10.488;2022-11-20T06:31:14;4.72;;;4.30;;
61413;SDS011;47279;52.426;10.488;2022-11-20T06:33:41;4.68;;;4.28;;
61413;SDS011;47279;52.426;10.488;2022-11-20T06:36:07;4.10;;;3.70;;
61413;SDS011;47279;52.426;10.488;2022-11-20T06:38:34;4.30;;;3.90;;
61413;SDS011;47279;52.426;10.488;2022-11-20T06:41:00;4.28;;;3.88;;
61413;SDS011;47279;52.426;10.488;2022-11-20T06:43:28;4.70;;;4.20;;
61413;SDS011;47279;52.426;10.488;2022-11-20T06:45:55;4.75;;;4.35;;
61413;SDS011;47279;52.426;10.488;2022-11-20T06:48:21;4.82;;;3.90;;
61413;SDS011;47279;52.426;10.488;2022-11-20T06:50:47;4.45;;;3.92;;
61413;SDS011;47279;52.426;10.488;2022-11-20T06:53:13;3.78;;;3.47;;
61413;SDS011;47279;52.426;10.488;2022-11-20T06:55:42;4.05;;;3.65;;
61413;SDS011;47279;52.426;10.488;2022-11-20T06:58:09;4.40;;;4.00;;
61413;SDS011;47279;52.426;10.488;2022-11-20T07:00:34;4.47;;;4.07;;
61413;SDS011;47279;52.426;10.488;2022-11-20T07:03:04;3.80;;;3.40;;
61413;SDS011;47279;52.426;10.488;2022-11-20T07:05:30;4.68;;;4.20;;
61413;SDS011;47279;52.426;10.488;2022-11-20T07:07:56;4.80;;;4.30;;
61413;SDS011;47279;52.426;10.488;2022-11-20T07:10:23;4.22;;;3.83;;
61413;SDS011;47279;52.426;10.488;2022-11-20T07:12:49;4.55;;;4.15;;
61413;SDS011;47279;52.426;10.488;2022-11-20T07:15:15;4.15;;;3.75;;
61413;SDS011;47279;52.426;10.488;2022-11-20T07:17:41;3.95;;;3.55;;
61413;SDS011;47279;52.426;10.488;2022-11-20T07:20:08;4.25;;;3.85;;
61413;SDS011;47279;52.426;10.488;2022-11-20T07:22:34;4.05;;;3.60;;
61413;SDS011;47279;52.426;10.488;2022-11-20T07:25:00;4.20;;;3.80;;
61413;SDS011;47279;52.426;10.488;2022-11-20T07:27:26;4.32;;;3.92;;
61413;SDS011;47279;52.426;10.488;2022-11-20T07:29:52;3.92;;;3.63;;
61413;SDS011;47279;52.426;10.488;2022-11-20T07:32:18;3.65;;;3.33;;
61413;SDS011;47279;52.426;10.488;2022-11-20T07:34:44;4.03;;;3.63;;
61413;SDS011;47279;52.426;10.488;2022-11-20T07:37:11;4.10;;;3.63;;
61413;SDS011;47279;52.426;10.488;2022-11-20T07:39:37;4.10;;;3.70;;
61413;SDS011;47279;52.426;10.488;2022-11-20T07:42:03;5.60;;;3.90;;
61413;SDS011;47279;52.426;10.488;2022-11-20T07:44:29;4.10;;;3.70;;
61413;SDS011;47279;52.426;10.488;2022-11-20T07:46:55;4.25;;;3.85;;
61413;SDS011;47279;52.426;10.488;2022-11-20T07:49:21;4.50;;;4.10;;
61413;SDS011;47279;52.426;10.488;2022-11-20T07:51:47;3.67;;;3.35;;
61413;SDS011;47279;52.426;10.488;2022-11-20T07:54:15;3.78;;;3.47;;
61413;SDS011;47279;52.426;10.488;2022-11-20T07:56:41;3.85;;;3.45;;
61413;SDS011;47279;52.426;10.488;2022-11-20T07:59:07;5.10;;;3.45;;
61413;SDS011;47279;52.426;10.488;2022-11-20T08:01:33;4.28;;;3.88;;
61413;SDS011;47279;52.426;10.488;2022-11-20T08:03:59;4.05;;;3.50;;
61413;SDS011;47279;52.426;10.488;2022-11-20T08:06:25;3.72;;;3.40;;
61413;SDS011;47279;52.426;10.488;2022-11-20T08:08:51;4.03;;;3.63;;
61413;SDS011;47279;52.426;10.488;2022-11-20T08:11:17;3.92;;;3.50;;
61413;SDS011;47279;52.426;10.488;2022-11-20T08:14:01;3.97;;;3.58;;
61413;SDS011;47279;52.426;10.488;2022-11-20T08:16:36;3.92;;;3.63;;
61413;SDS011;47279;52.426;10.488;2022-11-20T08:19:02;4.32;;;3.85;;
61413;SDS011;47279;52.426;10.488;2022-11-20T08:21:29;4.28;;;3.88;;
61413;SDS011;47279;52.426;10.488;2022-11-20T08:23:55;3.90;;;3.58;;
61413;SDS011;47279;52.426;10.488;2022-11-20T08:26:22;3.75;;;3.40;;
61413;SDS011;47279;52.426;10.488;2022-11-20T08:28:48;4.00;;;3.60;;
61413;SDS011;47279;52.426;10.488;2022-11-20T08:31:14;3.72;;;3.30;;
61413;SDS011;47279;52.426;10.488;2022-11-20T08:33:40;3.85;;;3.55;;
61413;SDS011;47279;52.426;10.488;2022-11-20T08:36:06;4.25;;;3.63;;
61413;SDS011;47279;52.426;10.488;2022-11-20T08:38:32;3.83;;;3.53;;
61413;SDS011;47279;52.426;10.488;2022-11-20T08:40:59;4.00;;;3.60;;
61413;SDS011;47279;52.426;10.488;2022-11-20T08:43:44;4.25;;;3.85;;
61413;SDS011;47279;52.426;10.488;2022-11-20T08:46:10;3.50;;;3.20;;
61413;SDS011;47279;52.426;10.488;2022-11-20T08:48:36;3.78;;;3.47;;
61413;SDS011;47279;52.426;10.488;2022-11-20T08:51:02;4.63;;;4.10;;
61413;SDS011;47279;52.426;10.488;2022-11-20T08:53:28;3.85;;;3.45;;
61413;SDS011;47279;52.426;10.488;2022-11-20T08:55:54;3.63;;;3.03;;
61413;SDS011;47279;52.426;10.488;2022-11-20T08:58:20;3.40;;;3.10;;
61413;SDS011;47279;52.426;10.488;2022-11-20T09:00:46;4.18;;;3.78;;
61413;SDS011;47279;52.426;10.488;2022-11-20T09:03:13;3.97;;;3.58;;
61413;SDS011;47279;52.426;10.488;2022-11-20T09:05:39;4.03;;;3.55;;
61413;SDS011;47279;52.426;10.488;2022-11-20T09:08:05;4.05;;;3.65;;
61413;SDS011;47279;52.426;10.488;2022-11-20T09:10:30;4.07;;;3.38;;
61413;SDS011;47279;52.426;10.488;2022-11-20T09:12:57;3.50;;;3.20;;
61413;SDS011;47279;52.426;10.488;2022-11-20T09:15:24;4.10;;;3.70;;
61413;SDS011;47279;52.426;10.488;2022-11-20T09:17:53;3.58;;;3.28;;
61413;SDS011;47279;52.426;10.488;2022-11-20T09:20:19;3.73;;;3.33;;
61413;SDS011;47279;52.426;10.488;2022-11-20T09:22:45;3.97;;;3.58;;
61413;SDS011;47279;52.426;10.488;2022-11-20T09:25:11;3.30;;;3.00;;
61413;SDS011;47279;52.426;10.488;2022-11-20T09:27:37;3.83;;;3.53;;
61413;SDS011;47279;52.426;10.488;2022-11-20T09:30:03;4.18;;;3.78;;
61413;SDS011;47279;52.426;10.488;2022-11-20T09:32:29;4.22;;;3.83;;
61413;SDS011;47279;52.426;10.488;2022-11-20T09:34:55;3.78;;;3.38;;
61413;SDS011;47279;52.426;10.488;2022-11-20T09:37:21;4.07;;;3.67;;
61413;SDS011;47279;52.426;10.488;2022-11-20T09:39:47;3.78;;;3.47;;
61413;SDS011;47279;52.426;10.488;2022-11-20T09:47:55;3.38;;;3.08;;
61413;SDS011;47279;52.426;10.488;2022-11-20T09:55:17;3.85;;;3.55;;
61413;SDS011;47279;52.426;10.488;2022-11-20T09:57:44;4.50;;;4.10;;
61413;SDS011;47279;52.426;10.488;2022-11-20T10:00:12;3.75;;;3.40;;
61413;SDS011;47279;52.426;10.488;2022-11-20T10:02:43;3.35;;;3.05;;
61413;SDS011;47279;52.426;10.488;2022-11-20T10:05:25;4.20;;;3.80;;
61413;SDS011;47279;52.426;10.488;2022-11-20T10:08:08;3.85;;;3.53;;
61413;SDS011;47279;52.426;10.488;2022-11-20T10:10:36;3.65;;;3.35;;
61413;SDS011;47279;52.426;10.488;2022-11-20T10:15:33;3.80;;;3.45;;
61413;SDS011;47279;52.426;10.488;2022-11-20T10:20:43;4.00;;;3.60;;
61413;SDS011;47279;52.426;10.488;2022-11-20T10:25:47;4.55;;;4.15;;
61413;SDS011;47279;52.426;10.488;2022-11-20T10:30:42;3.97;;;3.58;;
61413;SDS011;47279;52.426;10.488;2022-11-20T10:33:21;3.25;;;2.95;;
61413;SDS011;47279;52.426;10.488;2022-11-20T10:38:25;3.58;;;3.28;;
61413;SDS011;47279;52.426;10.488;2022-11-20T10:40:56;3.55;;;3.25;;
61413;SDS011;47279;52.426;10.488;2022-11-20T10:43:41;4.07;;;3.70;;
61413;SDS011;47279;52.426;10.488;2022-11-20T10:46:10;4.25;;;3.60;;
61413;SDS011;47279;52.426;10.488;2022-11-20T10:48:37;3.90;;;3.60;;
61413;SDS011;47279;52.426;10.488;2022-11-20T10:58:58;3.58;;;3.28;;
61413;SDS011;47279;52.426;10.488;2022-11-20T11:01:26;4.00;;;3.60;;
61413;SDS011;47279;52.426;10.488;2022-11-20T11:03:52;3.50;;;3.13;;
61413;SDS011;47279;52.426;10.488;2022-11-20T11:06:24;3.97;;;3.60;;
61413;SDS011;47279;52.426;10.488;2022-11-20T11:08:51;3.95;;;3.58;;
61413;SDS011;47279;52.426;10.488;2022-11-20T11:11:26;3.63;;;3.30;;
61413;SDS011;47279;52.426;10.488;2022-11-20T11:13:53;3.78;;;3.47;;
61413;SDS011;47279;52.426;10.488;2022-11-20T11:16:29;3.40;;;3.10;;
61413;SDS011;47279;52.426;10.488;2022-11-20T11:19:13;3.53;;;3.20;;
61413;SDS011;47279;52.426;10.488;2022-11-20T11:21:45;3.53;;;3.08;;
61413;SDS011;47279;52.426;10.488;2022-11-20T11:24:19;3.50;;;3.20;;
61413;SDS011;47279;52.426;10.488;2022-11-20T11:26:56;3.95;;;3.55;;
61413;SDS011;47279;52.426;10.488;2022-11-20T11:29:22;3.47;;;3.17;;
61413;SDS011;47279;52.426;10.488;2022-11-20T11:31:51;4.53;;;3.10;;
61413;SDS011;47279;52.426;10.488;2022-11-20T11:34:28;5.32;;;2.83;;
61413;SDS011;47279;52.426;10.488;2022-11-20T11:36:57;11.02;;;3.90;;
61413;SDS011;47279;52.426;10.488;2022-11-20T11:39:23;5.07;;;3.47;;
61413;SDS011;47279;52.426;10.488;2022-11-20T11:41:49;3.78;;;3.35;;
61413;SDS011;47279;52.426;10.488;2022-11-20T11:44:20;6.65;;;3.53;;
61413;SDS011;47279;52.426;10.488;2022-11-20T11:47:08;6.22;;;4.13;;
61413;SDS011;47279;52.426;10.488;2022-11-20T11:49:35;4.75;;;3.35;;
61413;SDS011;47279;52.426;10.488;2022-11-20T11:52:08;8.23;;;3.80;;
61413;SDS011;47279;52.426;10.488;2022-11-20T11:54:45;6.57;;;3.35;;
61413;SDS011;47279;52.426;10.488;2022-11-20T12:02:32;5.95;;;3.42;;
61413;SDS011;47279;52.426;10.488;2022-11-20T12:05:06;3.95;;;3.35;;
61413;SDS011;47279;52.426;10.488;2022-11-20T12:10:00;4.88;;;3.97;;
61413;SDS011;47279;52.426;10.488;2022-11-20T12:12:28;4.82;;;3.70;;
61413;SDS011;47279;52.426;10.488;2022-11-20T12:14:55;5.72;;;3.60;;
61413;SDS011;47279;52.426;10.488;2022-11-20T12:17:21;4.60;;;4.20;;
61413;SDS011;47279;52.426;10.488;2022-11-20T12:19:47;3.83;;;3.50;;
61413;SDS011;47279;52.426;10.488;2022-11-20T12:22:24;4.03;;;3.30;;
61413;SDS011;47279;52.426;10.488;2022-11-20T12:30:11;4.03;;;3.65;;
61413;SDS011;47279;52.426;10.488;2022-11-20T12:56:43;4.45;;;3.80;;
61413;SDS011;47279;52.426;10.488;2022-11-20T13:06:41;4.13;;;3.72;;
61413;SDS011;47279;52.426;10.488;2022-11-20T13:09:14;5.38;;;3.80;;
61413;SDS011;47279;52.426;10.488;2022-11-20T13:11:48;4.05;;;3.60;;
61413;SDS011;47279;52.426;10.488;2022-11-20T13:14:27;4.40;;;4.00;;
61413;SDS011;47279;52.426;10.488;2022-11-20T13:19:40;4.80;;;4.10;;
61413;SDS011;47279;52.426;10.488;2022-11-20T13:22:08;5.30;;;4.10;;
61413;SDS011;47279;52.426;10.488;2022-11-20T13:24:34;5.85;;;3.90;;
61413;SDS011;47279;52.426;10.488;2022-11-20T13:27:01;4.85;;;4.00;;
61413;SDS011;47279;52.426;10.488;2022-11-20T13:29:27;5.53;;;4.50;;
61413;SDS011;47279;52.426;10.488;2022-11-20T13:32:01;10.77;;;4.28;;
61413;SDS011;47279;52.426;10.488;2022-11-20T13:34:27;5.20;;;3.80;;
61413;SDS011;47279;52.426;10.488;2022-11-20T13:36:54;4.82;;;4.30;;
61413;SDS011;47279;52.426;10.488;2022-11-20T13:39:33;4.85;;;3.85;;
61413;SDS011;47279;52.426;10.488;2022-11-20T13:42:20;5.80;;;3.90;;
61413;SDS011;47279;52.426;10.488;2022-11-20T13:44:48;4.28;;;3.88;;
61413;SDS011;47279;52.426;10.488;2022-11-20T13:47:23;3.83;;;3.53;;
61413;SDS011;47279;52.426;10.488;2022-11-20T13:49:49;4.25;;;3.42;;
61413;SDS011;47279;52.426;10.488;2022-11-20T14:00:25;5.00;;;4.50;;
61413;SDS011;47279;52.426;10.488;2022-11-20T14:03:08;4.10;;;3.70;;
61413;SDS011;47279;52.426;10.488;2022-11-20T14:05:38;4.68;;;3.60;;
61413;SDS011;47279;52.426;10.488;2022-11-20T14:08:06;4.93;;;4.03;;
61413;SDS011;47279;52.426;10.488;2022-11-20T14:10:32;4.35;;;3.42;;
61413;SDS011;47279;52.426;10.488;2022-11-20T14:12:58;4.72;;;3.33;;
61413;SDS011;47279;52.426;10.488;2022-11-20T14:15:35;4.03;;;3.45;;
61413;SDS011;47279;52.426;10.488;2022-11-20T14:18:10;6.80;;;4.03;;
61413;SDS011;47279;52.426;10.488;2022-11-20T14:20:37;4.07;;;3.60;;
61413;SDS011;47279;52.426;10.488;2022-11-20T14:23:03;4.35;;;3.40;;
61413;SDS011;47279;52.426;10.488;2022-11-20T14:25:30;4.80;;;3.50;;
61413;SDS011;47279;52.426;10.488;2022-11-20T14:28:00;3.78;;;3.40;;
61413;SDS011;47279;52.426;10.488;2022-11-20T14:30:27;3.75;;;3.35;;
61413;SDS011;47279;52.426;10.488;2022-11-20T14:32:55;4.10;;;3.70;;
61413;SDS011;47279;52.426;10.488;2022-11-20T14:35:25;3.88;;;3.47;;
61413;SDS011;47279;52.426;10.488;2022-11-20T14:37:52;3.97;;;3.55;;
61413;SDS011;47279;52.426;10.488;2022-11-20T14:40:26;4.47;;;3.60;;
61413;SDS011;47279;52.426;10.488;2022-11-20T14:42:52;3.88;;;3.47;;
61413;SDS011;47279;52.426;10.488;2022-11-20T14:45:18;3.58;;;3.28;;
61413;SDS011;47279;52.426;10.488;2022-11-20T14:47:44;3.75;;;3.10;;
61413;SDS011;47279;52.426;10.488;2022-11-20T14:50:19;4.40;;;3.40;;
61413;SDS011;47279;52.426;10.488;2022-11-20T14:55:27;3.65;;;3.17;;
61413;SDS011;47279;52.426;10.488;2022-11-20T14:57:54;3.50;;;3.10;;
61413;SDS011;47279;52.426;10.488;2022-11-20T15:00:21;3.42;;;3.03;;
61413;SDS011;47279;52.426;10.488;2022-11-20T15:02:48;3.80;;;2.83;;
61413;SDS011;47279;52.426;10.488;2022-11-20T15:05:14;3.55;;;3.10;;
61413;SDS011;47279;52.426;10.488;2022-11-20T15:07:42;4.22;;;3.60;;
61413;SDS011;47279;52.426;10.488;2022-11-20T15:10:26;4.03;;;3.10;;
61413;SDS011;47279;52.426;10.488;2022-11-20T15:12:53;3.65;;;3.15;;
61413;SDS011;47279;52.426;10.488;2022-11-20T15:15:21;3.83;;;3.42;;
61413;SDS011;47279;52.426;10.488;2022-11-20T15:17:48;3.47;;;3.17;;
61413;SDS011;47279;52.426;10.488;2022-11-20T15:20:15;3.38;;;2.92;;
61413;SDS011;47279;52.426;10.488;2022-11-20T15:22:42;3.42;;;2.90;;
61413;SDS011;47279;52.426;10.488;2022-11-20T15:25:12;4.00;;;3.60;;
61413;SDS011;47279;52.426;10.488;2022-11-20T15:27:38;3.30;;;3.00;;
61413;SDS011;47279;52.426;10.488;2022-11-20T15:30:22;3.47;;;3.17;;
61413;SDS011;47279;52.426;10.488;2022-11-20T15:32:48;3.33;;;3.03;;
61413;SDS011;47279;52.426;10.488;2022-11-20T15:35:15;3.28;;;2.95;;
61413;SDS011;47279;52.426;10.488;2022-11-20T15:37:41;3.72;;;3.15;;
61413;SDS011;47279;52.426;10.488;2022-11-20T15:40:07;3.70;;;3.38;;
61413;SDS011;47279;52.426;10.488;2022-11-20T15:42:34;3.20;;;2.78;;
61413;SDS011;47279;52.426;10.488;2022-11-20T15:45:00;4.00;;;3.10;;
61413;SDS011;47279;52.426;10.488;2022-11-20T15:47:27;3.28;;;2.97;;
61413;SDS011;47279;52.426;10.488;2022-11-20T15:49:54;3.28;;;2.97;;
61413;SDS011;47279;52.426;10.488;2022-11-20T15:52:20;3.88;;;2.90;;
61413;SDS011;47279;52.426;10.488;2022-11-20T15:54:46;3.20;;;2.90;;
61413;SDS011;47279;52.426;10.488;2022-11-20T15:57:12;3.17;;;2.88;;
61413;SDS011;47279;52.426;10.488;2022-11-20T15:59:38;3.38;;;3.08;;
61413;SDS011;47279;52.426;10.488;2022-11-20T16:02:12;3.35;;;2.67;;
61413;SDS011;47279;52.426;10.488;2022-11-20T16:04:38;3.72;;;3.05;;
61413;SDS011;47279;52.426;10.488;2022-11-20T16:07:05;3.90;;;3.15;;
61413;SDS011;47279;52.426;10.488;2022-11-20T16:09:31;3.08;;;2.78;;
61413;SDS011;47279;52.426;10.488;2022-11-20T16:11:57;3.30;;;3.00;;